sensor_id;sensor_type;location;lat;lon;timestamp;pressure;altitude;pressure_sealevel;temperature;humidity
28000;BME280;15328;50.860;10.562;2024-01-25T00:01:50;97093.19;;;7.91;54.14
28000;BME280;15328;50.860;10.562;2024-01-25T00:06:51;97110.81;;;7.98;53.81
28000;BME280;15328;50.860;10.562;2024-01-25T00:11:51;97109.81;;;7.99;54.12
28000;BME280;15328;50.860;10.562;2024-01-25T00:16:52;97125.59;;;7.93;54.33
28000;BME280;15328;50.860;10.562;2024-01-25T00:21:52;97112.28;;;7.86;54.83
28000;BME280;15328;50.860;10.562;2024-01-25T00:26:52;97131.56;;;7.80;55.38
28000;BME280;15328;50.860;10.562;2024-01-25T00:31:53;97131.94;;;7.77;55.64
28000;BME280;15328;50.860;10.562;2024-01-25T00:36:53;97132.84;;;7.84;54.91
28000;BME280;15328;50.860;10.562;2024-01-25T00:42:06;97124.81;;;7.78;55.34
28000;BME280;15328;50.860;10.562;2024-01-25T00:47:07;97135.22;;;7.79;55.66
28000;BME280;15328;50.860;10.562;2024-01-25T00:52:08;97141.97;;;7.82;55.45
28000;BME280;15328;50.860;10.562;2024-01-25T00:57:09;97134.78;;;7.75;55.48
28000;BME280;15328;50.860;10.562;2024-01-25T01:02:11;97152.31;;;7.77;55.76
28000;BME280;15328;50.860;10.562;2024-01-25T01:07:12;97153.69;;;7.72;55.96
28000;BME280;15328;50.860;10.562;2024-01-25T01:12:12;97167.47;;;7.68;56.10
28000;BME280;15328;50.860;10.562;2024-01-25T01:17:14;97163.63;;;7.70;55.49
28000;BME280;15328;50.860;10.562;2024-01-25T01:22:15;97162.31;;;7.66;55.46
28000;BME280;15328;50.860;10.562;2024-01-25T01:27:16;97179.13;;;7.59;55.79
28000;BME280;15328;50.860;10.562;2024-01-25T01:32:16;97161.59;;;7.58;55.41
28000;BME280;15328;50.860;10.562;2024-01-25T01:37:17;97168.91;;;7.56;55.77
28000;BME280;15328;50.860;10.562;2024-01-25T01:42:18;97174.84;;;7.58;55.86
28000;BME280;15328;50.860;10.562;2024-01-25T01:47:19;97169.81;;;7.63;55.51
28000;BME280;15328;50.860;10.562;2024-01-25T01:52:19;97174.28;;;7.48;56.08
28000;BME280;15328;50.860;10.562;2024-01-25T01:57:19;97172.91;;;7.52;55.94
28000;BME280;15328;50.860;10.562;2024-01-25T02:02:20;97172.81;;;7.60;55.78
28000;BME280;15328;50.860;10.562;2024-01-25T02:07:21;97156.84;;;7.53;55.72
28000;BME280;15328;50.860;10.562;2024-01-25T02:12:21;97164.97;;;7.52;55.08
28000;BME280;15328;50.860;10.562;2024-01-25T02:17:22;97172.75;;;7.53;54.87
28000;BME280;15328;50.860;10.562;2024-01-25T02:22:22;97153.09;;;7.48;55.20
28000;BME280;15328;50.860;10.562;2024-01-25T02:27:23;97159.13;;;7.41;55.24
28000;BME280;15328;50.860;10.562;2024-01-25T02:32:23;97150.19;;;7.42;55.40
28000;BME280;15328;50.860;10.562;2024-01-25T02:37:23;97126.88;;;7.38;54.96
28000;BME280;15328;50.860;10.562;2024-01-25T02:42:24;97124.41;;;7.36;55.40
28000;BME280;15328;50.860;10.562;2024-01-25T02:47:24;97107.63;;;7.29;55.65
28000;BME280;15328;50.860;10.562;2024-01-25T02:52:24;97111.91;;;7.30;55.63
28000;BME280;15328;50.860;10.562;2024-01-25T02:57:25;97110.81;;;7.25;55.71
28000;BME280;15328;50.860;10.562;2024-01-25T03:02:25;97091.56;;;7.16;55.83
28000;BME280;15328;50.860;10.562;2024-01-25T03:07:26;97099.19;;;7.11;56.42
28000;BME280;15328;50.860;10.562;2024-01-25T03:12:26;97092.75;;;7.13;56.29
28000;BME280;15328;50.860;10.562;2024-01-25T03:17:26;97107.31;;;7.09;56.76
28000;BME280;15328;50.860;10.562;2024-01-25T03:22:27;97106.03;;;7.05;57.03
28000;BME280;15328;50.860;10.562;2024-01-25T03:27:27;97110.78;;;7.10;56.90
28000;BME280;15328;50.860;10.562;2024-01-25T03:32:27;97158.72;;;7.15;57.26
28000;BME280;15328;50.860;10.562;2024-01-25T03:37:28;97191.94;;;7.18;56.86
28000;BME280;15328;50.860;10.562;2024-01-25T03:42:28;97203.78;;;7.22;56.93
28000;BME280;15328;50.860;10.562;2024-01-25T03:47:28;97197.31;;;7.24;57.33
28000;BME280;15328;50.860;10.562;2024-01-25T03:52:29;97183.72;;;7.12;57.35
28000;BME280;15328;50.860;10.562;2024-01-25T03:57:30;97191.78;;;7.11;57.47
28000;BME280;15328;50.860;10.562;2024-01-25T04:02:30;97202.88;;;7.15;57.57
28000;BME280;15328;50.860;10.562;2024-01-25T04:07:31;97212.66;;;7.06;57.70
28000;BME280;15328;50.860;10.562;2024-01-25T04:12:31;97229.84;;;7.10;57.59
28000;BME280;15328;50.860;10.562;2024-01-25T04:17:33;97221.78;;;7.03;58.41
28000;BME280;15328;50.860;10.562;2024-01-25T04:22:33;97219.25;;;7.10;58.03
28000;BME280;15328;50.860;10.562;2024-01-25T04:27:33;97240.78;;;7.07;58.12
28000;BME280;15328;50.860;10.562;2024-01-25T04:32:34;97243.47;;;6.99;58.36
28000;BME280;15328;50.860;10.562;2024-01-25T04:37:34;97261.72;;;6.94;57.96
28000;BME280;15328;50.860;10.562;2024-01-25T04:42:35;97269.16;;;6.90;57.66
28000;BME280;15328;50.860;10.562;2024-01-25T04:47:37;97271.13;;;6.96;57.19
28000;BME280;15328;50.860;10.562;2024-01-25T04:52:38;97277.09;;;6.90;57.34
28000;BME280;15328;50.860;10.562;2024-01-25T04:57:38;97283.56;;;6.88;57.62
28000;BME280;15328;50.860;10.562;2024-01-25T05:02:39;97278.41;;;6.94;57.47
28000;BME280;15328;50.860;10.562;2024-01-25T05:07:39;97291.28;;;6.97;56.54
28000;BME280;15328;50.860;10.562;2024-01-25T05:12:40;97306.31;;;6.97;56.97
28000;BME280;15328;50.860;10.562;2024-01-25T05:17:40;97319.25;;;6.92;56.76
28000;BME280;15328;50.860;10.562;2024-01-25T05:22:40;97319.91;;;6.94;57.29
28000;BME280;15328;50.860;10.562;2024-01-25T05:27:42;97341.00;;;7.02;56.51
28000;BME280;15328;50.860;10.562;2024-01-25T05:32:42;97338.38;;;7.02;56.30
28000;BME280;15328;50.860;10.562;2024-01-25T05:37:43;97337.25;;;6.96;56.47
28000;BME280;15328;50.860;10.562;2024-01-25T05:42:43;97326.13;;;7.01;55.81
28000;BME280;15328;50.860;10.562;2024-01-25T05:47:44;97327.31;;;6.98;55.29
28000;BME280;15328;50.860;10.562;2024-01-25T05:52:44;97334.06;;;7.01;55.39
28000;BME280;15328;50.860;10.562;2024-01-25T05:57:44;97339.41;;;6.93;55.74
28000;BME280;15328;50.860;10.562;2024-01-25T06:02:45;97335.94;;;6.92;55.31
28000;BME280;15328;50.860;10.562;2024-01-25T06:07:45;97367.22;;;6.89;54.63
28000;BME280;15328;50.860;10.562;2024-01-25T06:12:45;97356.47;;;6.90;54.53
28000;BME280;15328;50.860;10.562;2024-01-25T06:17:46;97356.97;;;6.86;54.85
28000;BME280;15328;50.860;10.562;2024-01-25T06:22:46;97374.81;;;6.92;54.81
28000;BME280;15328;50.860;10.562;2024-01-25T06:27:47;97369.69;;;6.90;53.16
28000;BME280;15328;50.860;10.562;2024-01-25T06:32:48;97373.00;;;6.84;53.89
28000;BME280;15328;50.860;10.562;2024-01-25T06:37:49;97370.69;;;6.89;53.51
28000;BME280;15328;50.860;10.562;2024-01-25T06:42:49;97386.91;;;6.86;54.27
28000;BME280;15328;50.860;10.562;2024-01-25T06:47:49;97400.94;;;6.87;54.63
28000;BME280;15328;50.860;10.562;2024-01-25T06:52:50;97404.72;;;6.84;54.08
28000;BME280;15328;50.860;10.562;2024-01-25T06:57:50;97420.13;;;6.80;54.19
28000;BME280;15328;50.860;10.562;2024-01-25T07:02:50;97421.75;;;6.81;53.78
28000;BME280;15328;50.860;10.562;2024-01-25T07:07:51;97422.09;;;6.78;53.68
28000;BME280;15328;50.860;10.562;2024-01-25T07:12:51;97441.28;;;6.80;53.37
28000;BME280;15328;50.860;10.562;2024-01-25T07:17:52;97445.75;;;6.80;53.52
28000;BME280;15328;50.860;10.562;2024-01-25T07:22:53;97448.38;;;6.80;53.52
28000;BME280;15328;50.860;10.562;2024-01-25T07:27:53;97436.66;;;6.74;53.30
28000;BME280;15328;50.860;10.562;2024-01-25T07:32:54;97439.13;;;6.84;54.05
28000;BME280;15328;50.860;10.562;2024-01-25T07:37:54;97446.09;;;6.77;54.04
28000;BME280;15328;50.860;10.562;2024-01-25T07:42:54;97451.84;;;6.80;53.67
28000;BME280;15328;50.860;10.562;2024-01-25T07:47:54;97454.34;;;6.74;53.66
28000;BME280;15328;50.860;10.562;2024-01-25T07:52:55;97457.84;;;6.66;54.06
28000;BME280;15328;50.860;10.562;2024-01-25T07:57:55;97464.97;;;6.66;54.03
28000;BME280;15328;50.860;10.562;2024-01-25T08:02:56;97473.03;;;6.72;53.92
28000;BME280;15328;50.860;10.562;2024-01-25T08:07:56;97478.00;;;6.75;53.46
28000;BME280;15328;50.860;10.562;2024-01-25T08:12:56;97491.53;;;6.80;53.63
28000;BME280;15328;50.860;10.562;2024-01-25T08:17:58;97502.28;;;6.79;54.14
28000;BME280;15328;50.860;10.562;2024-01-25T08:22:59;97513.19;;;6.92;53.87
28000;BME280;15328;50.860;10.562;2024-01-25T08:27:59;97527.19;;;7.01;53.50
28000;BME280;15328;50.860;10.562;2024-01-25T08:33:00;97535.44;;;7.06;53.31
28000;BME280;15328;50.860;10.562;2024-01-25T08:38:00;97525.03;;;7.12;53.20
28000;BME280;15328;50.860;10.562;2024-01-25T08:43:01;97523.19;;;7.21;53.30
28000;BME280;15328;50.860;10.562;2024-01-25T08:48:01;97527.44;;;7.30;52.78
28000;BME280;15328;50.860;10.562;2024-01-25T08:53:01;97533.41;;;7.32;52.09
28000;BME280;15328;50.860;10.562;2024-01-25T08:58:02;97515.00;;;7.47;51.27
28000;BME280;15328;50.860;10.562;2024-01-25T09:03:02;97513.00;;;7.49;50.91
28000;BME280;15328;50.860;10.562;2024-01-25T09:08:03;97511.16;;;7.50;50.04
28000;BME280;15328;50.860;10.562;2024-01-25T09:13:04;97542.31;;;7.39;50.46
28000;BME280;15328;50.860;10.562;2024-01-25T09:18:04;97535.00;;;7.50;50.37
28000;BME280;15328;50.860;10.562;2024-01-25T09:23:05;97551.78;;;7.73;51.26
28000;BME280;15328;50.860;10.562;2024-01-25T09:28:05;97556.16;;;7.89;50.21
28000;BME280;15328;50.860;10.562;2024-01-25T09:33:08;97578.41;;;8.11;50.35
28000;BME280;15328;50.860;10.562;2024-01-25T09:38:09;97581.59;;;8.37;49.15
28000;BME280;15328;50.860;10.562;2024-01-25T09:43:09;97585.25;;;8.59;47.73
28000;BME280;15328;50.860;10.562;2024-01-25T09:48:11;97573.25;;;8.86;49.17
28000;BME280;15328;50.860;10.562;2024-01-25T09:53:17;97569.97;;;9.36;47.75
28000;BME280;15328;50.860;10.562;2024-01-25T09:58:21;97571.47;;;10.62;46.73
28000;BME280;15328;50.860;10.562;2024-01-25T10:03:21;97568.06;;;12.34;41.83
28000;BME280;15328;50.860;10.562;2024-01-25T10:08:22;97574.59;;;13.90;37.17
28000;BME280;15328;50.860;10.562;2024-01-25T10:13:24;97564.69;;;15.05;35.51
28000;BME280;15328;50.860;10.562;2024-01-25T10:18:27;97566.72;;;15.77;33.08
28000;BME280;15328;50.860;10.562;2024-01-25T10:23:28;97578.13;;;15.91;30.75
28000;BME280;15328;50.860;10.562;2024-01-25T10:28:28;97572.59;;;16.04;32.56
28000;BME280;15328;50.860;10.562;2024-01-25T10:33:31;97574.81;;;16.74;30.69
28000;BME280;15328;50.860;10.562;2024-01-25T10:38:33;97576.88;;;17.14;30.48
28000;BME280;15328;50.860;10.562;2024-01-25T10:43:35;97581.47;;;17.60;29.68
28000;BME280;15328;50.860;10.562;2024-01-25T10:48:37;97578.63;;;18.02;28.41
28000;BME280;15328;50.860;10.562;2024-01-25T10:53:38;97591.66;;;17.58;28.29
28000;BME280;15328;50.860;10.562;2024-01-25T10:58:40;97573.44;;;16.95;29.24
28000;BME280;15328;50.860;10.562;2024-01-25T11:03:41;97571.88;;;16.46;29.02
28000;BME280;15328;50.860;10.562;2024-01-25T11:08:41;97574.97;;;15.33;31.39
28000;BME280;15328;50.860;10.562;2024-01-25T11:13:43;97581.03;;;14.97;31.64
28000;BME280;15328;50.860;10.562;2024-01-25T11:18:48;97587.13;;;14.41;33.29
28000;BME280;15328;50.860;10.562;2024-01-25T11:23:48;97585.50;;;13.88;33.37
28000;BME280;15328;50.860;10.562;2024-01-25T11:28:49;97582.53;;;13.39;34.92
28000;BME280;15328;50.860;10.562;2024-01-25T11:33:50;97582.50;;;12.73;35.88
28000;BME280;15328;50.860;10.562;2024-01-25T11:38:51;97576.19;;;12.06;37.36
28000;BME280;15328;50.860;10.562;2024-01-25T11:43:52;97572.81;;;11.84;38.24
28000;BME280;15328;50.860;10.562;2024-01-25T11:48:52;97569.41;;;11.34;38.39
28000;BME280;15328;50.860;10.562;2024-01-25T11:53:53;97558.66;;;10.93;40.31
28000;BME280;15328;50.860;10.562;2024-01-25T11:58:54;97563.25;;;10.78;41.23
28000;BME280;15328;50.860;10.562;2024-01-25T12:03:56;97555.75;;;10.67;41.30
28000;BME280;15328;50.860;10.562;2024-01-25T12:09:06;97555.06;;;10.58;42.15
28000;BME280;15328;50.860;10.562;2024-01-25T12:14:09;97555.41;;;10.48;42.34
28000;BME280;15328;50.860;10.562;2024-01-25T12:19:09;97554.53;;;10.41;42.56
28000;BME280;15328;50.860;10.562;2024-01-25T12:24:10;97549.88;;;10.71;42.48
28000;BME280;15328;50.860;10.562;2024-01-25T12:29:10;97558.72;;;11.62;41.79
28000;BME280;15328;50.860;10.562;2024-01-25T12:34:13;97554.31;;;12.37;39.45
28000;BME280;15328;50.860;10.562;2024-01-25T12:39:15;97545.31;;;13.37;38.38
28000;BME280;15328;50.860;10.562;2024-01-25T12:44:15;97555.06;;;13.89;35.90
28000;BME280;15328;50.860;10.562;2024-01-25T12:49:17;97545.03;;;13.65;35.43
28000;BME280;15328;50.860;10.562;2024-01-25T12:54:17;97564.84;;;13.05;36.59
28000;BME280;15328;50.860;10.562;2024-01-25T12:59:18;97557.63;;;12.52;37.63
28000;BME280;15328;50.860;10.562;2024-01-25T13:04:18;97537.81;;;12.07;38.50
28000;BME280;15328;50.860;10.562;2024-01-25T13:09:21;97534.47;;;11.51;38.67
28000;BME280;15328;50.860;10.562;2024-01-25T13:14:21;97523.13;;;11.07;40.04
28000;BME280;15328;50.860;10.562;2024-01-25T13:19:22;97524.53;;;10.54;40.91
28000;BME280;15328;50.860;10.562;2024-01-25T13:24:23;97526.44;;;10.39;41.99
28000;BME280;15328;50.860;10.562;2024-01-25T13:29:23;97514.59;;;10.63;41.87
28000;BME280;15328;50.860;10.562;2024-01-25T13:34:23;97500.84;;;10.87;41.25
28000;BME280;15328;50.860;10.562;2024-01-25T13:39:24;97489.53;;;10.78;41.60
28000;BME280;15328;50.860;10.562;2024-01-25T13:44:25;97498.84;;;10.68;42.05
28000;BME280;15328;50.860;10.562;2024-01-25T13:49:26;97500.31;;;10.42;42.31
28000;BME280;15328;50.860;10.562;2024-01-25T13:54:29;97500.16;;;10.29;42.64
28000;BME280;15328;50.860;10.562;2024-01-25T13:59:30;97515.25;;;10.22;42.42
28000;BME280;15328;50.860;10.562;2024-01-25T14:04:30;97522.13;;;10.02;42.76
28000;BME280;15328;50.860;10.562;2024-01-25T14:09:31;97518.72;;;9.86;43.46
28000;BME280;15328;50.860;10.562;2024-01-25T14:14:31;97512.84;;;9.91;43.07
28000;BME280;15328;50.860;10.562;2024-01-25T14:19:31;97505.75;;;9.98;43.56
28000;BME280;15328;50.860;10.562;2024-01-25T14:24:32;97511.22;;;9.75;43.20
28000;BME280;15328;50.860;10.562;2024-01-25T14:29:32;97516.91;;;9.57;43.43
28000;BME280;15328;50.860;10.562;2024-01-25T14:34:33;97519.50;;;9.21;44.99
28000;BME280;15328;50.860;10.562;2024-01-25T14:39:36;97505.28;;;8.99;45.51
28000;BME280;15328;50.860;10.562;2024-01-25T14:44:38;97507.47;;;8.81;46.03
28000;BME280;15328;50.860;10.562;2024-01-25T14:49:38;97505.88;;;8.57;46.47
28000;BME280;15328;50.860;10.562;2024-01-25T14:54:40;97495.16;;;8.51;46.70
28000;BME280;15328;50.860;10.562;2024-01-25T14:59:40;97502.56;;;8.32;47.21
28000;BME280;15328;50.860;10.562;2024-01-25T15:04:42;97508.41;;;8.28;47.49
28000;BME280;15328;50.860;10.562;2024-01-25T15:09:42;97508.56;;;8.03;47.84
28000;BME280;15328;50.860;10.562;2024-01-25T15:14:42;97496.50;;;8.01;48.29
28000;BME280;15328;50.860;10.562;2024-01-25T15:19:43;97491.09;;;7.86;48.92
28000;BME280;15328;50.860;10.562;2024-01-25T15:24:44;97486.56;;;7.72;49.40
28000;BME280;15328;50.860;10.562;2024-01-25T15:29:45;97496.00;;;7.66;50.10
28000;BME280;15328;50.860;10.562;2024-01-25T15:34:46;97485.69;;;7.49;50.07
28000;BME280;15328;50.860;10.562;2024-01-25T15:39:47;97487.88;;;7.45;50.84
28000;BME280;15328;50.860;10.562;2024-01-25T15:44:48;97497.00;;;7.34;50.89
28000;BME280;15328;50.860;10.562;2024-01-25T15:49:48;97485.28;;;7.29;51.24
28000;BME280;15328;50.860;10.562;2024-01-25T15:54:49;97477.16;;;7.30;51.33
28000;BME280;15328;50.860;10.562;2024-01-25T15:59:51;97476.50;;;7.28;52.01
28000;BME280;15328;50.860;10.562;2024-01-25T16:04:51;97480.72;;;7.15;52.44
28000;BME280;15328;50.860;10.562;2024-01-25T16:09:52;97483.38;;;7.06;52.85
28000;BME280;15328;50.860;10.562;2024-01-25T16:14:52;97488.66;;;7.15;53.33
28000;BME280;15328;50.860;10.562;2024-01-25T16:19:55;97479.97;;;6.90;53.56
28000;BME280;15328;50.860;10.562;2024-01-25T16:24:56;97472.19;;;6.88;53.58
28000;BME280;15328;50.860;10.562;2024-01-25T16:29:56;97471.03;;;6.82;53.69
28000;BME280;15328;50.860;10.562;2024-01-25T16:34:57;97465.94;;;6.73;54.34
28000;BME280;15328;50.860;10.562;2024-01-25T16:39:57;97470.06;;;6.75;54.31
28000;BME280;15328;50.860;10.562;2024-01-25T16:44:57;97466.75;;;6.73;54.93
28000;BME280;15328;50.860;10.562;2024-01-25T16:49:58;97460.19;;;6.61;55.04
28000;BME280;15328;50.860;10.562;2024-01-25T16:54:58;97442.66;;;6.52;55.50
28000;BME280;15328;50.860;10.562;2024-01-25T16:59:58;97442.31;;;6.55;55.60
28000;BME280;15328;50.860;10.562;2024-01-25T17:04:59;97432.56;;;6.56;55.43
28000;BME280;15328;50.860;10.562;2024-01-25T17:09:59;97440.03;;;6.52;55.53
28000;BME280;15328;50.860;10.562;2024-01-25T17:15:00;97430.78;;;6.48;55.42
28000;BME280;15328;50.860;10.562;2024-01-25T17:20:01;97429.47;;;6.44;55.50
28000;BME280;15328;50.860;10.562;2024-01-25T17:25:01;97438.25;;;6.36;55.72
28000;BME280;15328;50.860;10.562;2024-01-25T17:30:01;97440.88;;;6.28;55.64
28000;BME280;15328;50.860;10.562;2024-01-25T17:35:02;97437.72;;;6.25;56.23
28000;BME280;15328;50.860;10.562;2024-01-25T17:40:03;97438.41;;;6.27;56.38
28000;BME280;15328;50.860;10.562;2024-01-25T17:45:03;97446.31;;;6.27;56.38
28000;BME280;15328;50.860;10.562;2024-01-25T17:50:04;97447.81;;;6.21;56.24
28000;BME280;15328;50.860;10.562;2024-01-25T17:55:05;97454.91;;;6.20;56.58
28000;BME280;15328;50.860;10.562;2024-01-25T18:00:06;97448.81;;;6.20;56.63
28000;BME280;15328;50.860;10.562;2024-01-25T18:05:07;97455.41;;;6.24;56.82
28000;BME280;15328;50.860;10.562;2024-01-25T18:10:08;97449.97;;;6.26;56.71
28000;BME280;15328;50.860;10.562;2024-01-25T18:15:09;97448.47;;;6.23;56.88
28000;BME280;15328;50.860;10.562;2024-01-25T18:20:09;97442.22;;;6.16;57.07
28000;BME280;15328;50.860;10.562;2024-01-25T18:25:10;97448.31;;;6.16;56.97
28000;BME280;15328;50.860;10.562;2024-01-25T18:30:11;97448.97;;;6.18;57.27
28000;BME280;15328;50.860;10.562;2024-01-25T18:35:11;97439.06;;;6.12;57.83
28000;BME280;15328;50.860;10.562;2024-01-25T18:40:12;97432.47;;;6.16;57.85
28000;BME280;15328;50.860;10.562;2024-01-25T18:45:12;97432.13;;;6.19;57.76
28000;BME280;15328;50.860;10.562;2024-01-25T18:50:13;97426.84;;;6.28;57.80
28000;BME280;15328;50.860;10.562;2024-01-25T18:55:13;97421.88;;;6.25;57.71
28000;BME280;15328;50.860;10.562;2024-01-25T19:00:15;97416.94;;;6.22;57.76
28000;BME280;15328;50.860;10.562;2024-01-25T19:05:15;97414.28;;;6.22;58.21
28000;BME280;15328;50.860;10.562;2024-01-25T19:10:16;97427.66;;;6.20;57.78
28000;BME280;15328;50.860;10.562;2024-01-25T19:15:16;97427.50;;;6.22;57.50
28000;BME280;15328;50.860;10.562;2024-01-25T19:20:17;97411.97;;;6.27;57.25
28000;BME280;15328;50.860;10.562;2024-01-25T19:25:18;97401.56;;;6.25;57.64
28000;BME280;15328;50.860;10.562;2024-01-25T19:30:19;97418.25;;;6.26;57.29
28000;BME280;15328;50.860;10.562;2024-01-25T19:35:20;97420.25;;;6.32;57.40
28000;BME280;15328;50.860;10.562;2024-01-25T19:40:22;97419.06;;;6.26;56.60
28000;BME280;15328;50.860;10.562;2024-01-25T19:45:23;97423.88;;;6.23;57.43
28000;BME280;15328;50.860;10.562;2024-01-25T19:50:23;97426.03;;;6.19;57.21
28000;BME280;15328;50.860;10.562;2024-01-25T19:55:23;97433.63;;;6.22;57.03
28000;BME280;15328;50.860;10.562;2024-01-25T20:00:24;97424.19;;;6.28;57.16
28000;BME280;15328;50.860;10.562;2024-01-25T20:05:25;97427.66;;;6.36;56.98
28000;BME280;15328;50.860;10.562;2024-01-25T20:10:26;97422.53;;;6.43;56.40
28000;BME280;15328;50.860;10.562;2024-01-25T20:15:26;97424.50;;;6.49;56.29
28000;BME280;15328;50.860;10.562;2024-01-25T20:20:27;97419.03;;;6.50;56.10
28000;BME280;15328;50.860;10.562;2024-01-25T20:25:27;97413.59;;;6.52;56.18
28000;BME280;15328;50.860;10.562;2024-01-25T20:30:27;97414.72;;;6.66;55.94
28000;BME280;15328;50.860;10.562;2024-01-25T20:35:31;97418.69;;;6.70;56.06
28000;BME280;15328;50.860;10.562;2024-01-25T20:40:31;97413.34;;;6.78;55.88
28000;BME280;15328;50.860;10.562;2024-01-25T20:45:31;97403.25;;;6.81;55.68
28000;BME280;15328;50.860;10.562;2024-01-25T20:50:33;97394.00;;;6.77;55.70
28000;BME280;15328;50.860;10.562;2024-01-25T20:55:35;97388.63;;;6.63;56.57
28000;BME280;15328;50.860;10.562;2024-01-25T21:00:37;97385.44;;;6.75;56.91
28000;BME280;15328;50.860;10.562;2024-01-25T21:05:39;97386.94;;;6.70;56.32
28000;BME280;15328;50.860;10.562;2024-01-25T21:10:40;97383.34;;;6.55;57.43
28000;BME280;15328;50.860;10.562;2024-01-25T21:15:42;97380.03;;;6.53;58.10
28000;BME280;15328;50.860;10.562;2024-01-25T21:20:42;97378.38;;;6.51;58.00
28000;BME280;15328;50.860;10.562;2024-01-25T21:25:43;97378.22;;;6.61;57.97
28000;BME280;15328;50.860;10.562;2024-01-25T21:30:43;97380.22;;;6.59;58.07
28000;BME280;15328;50.860;10.562;2024-01-25T21:35:43;97382.69;;;6.53;57.70
28000;BME280;15328;50.860;10.562;2024-01-25T21:40:44;97381.22;;;6.58;57.94
28000;BME280;15328;50.860;10.562;2024-01-25T21:45:44;97374.59;;;6.54;58.65
28000;BME280;15328;50.860;10.562;2024-01-25T21:50:44;97364.19;;;6.53;58.80
28000;BME280;15328;50.860;10.562;2024-01-25T21:55:45;97375.25;;;6.48;59.32
28000;BME280;15328;50.860;10.562;2024-01-25T22:00:45;97375.25;;;6.48;59.30
28000;BME280;15328;50.860;10.562;2024-01-25T22:05:46;97361.19;;;6.56;59.42
28000;BME280;15328;50.860;10.562;2024-01-25T22:10:46;97355.06;;;6.63;59.38
28000;BME280;15328;50.860;10.562;2024-01-25T22:15:46;97355.22;;;6.70;59.21
28000;BME280;15328;50.860;10.562;2024-01-25T22:20:47;97360.31;;;6.71;59.67
28000;BME280;15328;50.860;10.562;2024-01-25T22:25:47;97355.50;;;6.75;59.87
28000;BME280;15328;50.860;10.562;2024-01-25T22:30:47;97353.69;;;6.75;59.74
28000;BME280;15328;50.860;10.562;2024-01-25T22:35:48;97357.66;;;6.79;59.49
28000;BME280;15328;50.860;10.562;2024-01-25T22:40:48;97357.13;;;6.84;59.69
28000;BME280;15328;50.860;10.562;2024-01-25T22:45:50;97345.06;;;6.81;60.65
28000;BME280;15328;50.860;10.562;2024-01-25T22:50:50;97351.16;;;6.90;60.43
28000;BME280;15328;50.860;10.562;2024-01-25T22:55:51;97350.94;;;7.00;61.14
28000;BME280;15328;50.860;10.562;2024-01-25T23:00:51;97349.94;;;7.01;60.70
28000;BME280;15328;50.860;10.562;2024-01-25T23:05:52;97344.72;;;6.93;60.99
28000;BME280;15328;50.860;10.562;2024-01-25T23:10:53;97344.41;;;6.88;61.81
28000;BME280;15328;50.860;10.562;2024-01-25T23:15:53;97347.22;;;6.86;62.50
28000;BME280;15328;50.860;10.562;2024-01-25T23:20:53;97334.06;;;6.70;62.75
28000;BME280;15328;50.860;10.562;2024-01-25T23:25:54;97339.81;;;6.73;63.11
28000;BME280;15328;50.860;10.562;2024-01-25T23:30:55;97323.78;;;6.75;63.16
28000;BME280;15328;50.860;10.562;2024-01-25T23:35:55;97319.53;;;6.66;64.42
28000;BME280;15328;50.860;10.562;2024-01-25T23:40:56;97324.53;;;6.53;65.14
28000;BME280;15328;50.860;10.562;2024-01-25T23:45:56;97315.78;;;6.52;66.21
28000;BME280;15328;50.860;10.562;2024-01-25T23:50:56;97313.66;;;6.47;66.67
28000;BME280;15328;50.860;10.562;2024-01-25T23:55:56;97314.69;;;6.38;67.22
